Time;durP1;ratioP1;P1;durP2;ratioP2;P2;SDS_P1;SDS_P2;PMS_P1;PMS_P2;Temp;Humidity;BMP_temperature;BMP_pressure;BME280_temperature;BME280_humidity;BME280_pressure;Samples;Min_cycle;Max_cycle;Signal;HPM_P1;HPM_P2
2022/07/30 00:00:48;;;;;;;;;;;27.30;39.40;;;;;;8367444;28;20374;-45
2022/07/30 00:04:49;;;;;;;;;;;27.30;39.40;;;;;;8366965;28;19928;-44
2022/07/30 00:08:49;;;;;;;;;;;27.30;39.40;;;;;;8349459;28;19920;-44
2022/07/30 00:12:50;;;;;;;;;;;27.30;39.40;;;;;;8367113;28;20008;-44
2022/07/30 00:16:51;;;;;;;;;;;27.30;39.40;;;;;;8365969;28;20374;-44
2022/07/30 00:20:51;;;;;;;;;;;27.30;39.40;;;;;;8366895;28;19917;-44
2022/07/30 00:24:52;;;;;;;;;;;27.30;39.40;;;;;;8366798;28;19921;-44
2022/07/30 00:28:52;;;;;;;;;;;27.20;39.40;;;;;;8377617;28;20347;-44
2022/07/30 00:32:53;;;;;;;;;;;27.20;39.40;;;;;;8373948;28;19924;-43
2022/07/30 00:36:53;;;;;;;;;;;27.20;39.40;;;;;;8366385;28;19963;-45
2022/07/30 00:40:54;;;;;;;;;;;27.20;39.40;;;;;;8365941;28;19917;-44
2022/07/30 00:44:54;;;;;;;;;;;27.20;39.40;;;;;;8366306;28;19920;-44
2022/07/30 00:48:54;;;;;;;;;;;27.20;39.40;;;;;;8366393;28;19920;-44
2022/07/30 00:52:55;;;;;;;;;;;27.20;39.40;;;;;;8365512;28;19981;-44
2022/07/30 00:56:55;;;;;;;;;;;27.20;39.40;;;;;;8365865;28;19970;-43
2022/07/30 01:00:56;;;;;;;;;;;27.20;39.40;;;;;;8365417;28;19917;-44
2022/07/30 01:04:56;;;;;;;;;;;27.10;39.40;;;;;;8349771;28;19925;-43
2022/07/30 01:08:57;;;;;;;;;;;27.10;39.40;;;;;;8364907;28;19921;-44
2022/07/30 01:12:58;;;;;;;;;;;27.10;39.40;;;;;;8365264;28;20377;-44
2022/07/30 01:16:58;;;;;;;;;;;27.10;39.40;;;;;;8364618;28;19924;-47
2022/07/30 01:21:08;;;;;;;;;;;27.10;39.40;;;;;;8365032;28;19923;-44
2022/07/30 01:25:12;;;;;;;;;;;27.10;39.40;;;;;;8365152;28;19928;-44
2022/07/30 01:29:13;;;;;;;;;;;27.10;39.40;;;;;;8363753;28;19920;-45
2022/07/30 01:33:15;;;;;;;;;;;27.10;39.40;;;;;;8364624;28;20370;-44
2022/07/30 01:37:16;;;;;;;;;;;27.10;39.40;;;;;;8364682;28;19924;-48
2022/07/30 01:41:17;;;;;;;;;;;27.10;39.40;;;;;;8364025;28;20378;-45
2022/07/30 01:45:18;;;;;;;;;;;27.00;39.40;;;;;;8364592;28;20291;-45
2022/07/30 01:49:20;;;;;;;;;;;27.00;39.30;;;;;;8364861;28;19912;-45
2022/07/30 01:53:22;;;;;;;;;;;27.00;39.40;;;;;;8363725;28;20382;-44
2022/07/30 01:57:24;;;;;;;;;;;27.00;39.40;;;;;;8364265;28;19965;-44
2022/07/30 02:01:25;;;;;;;;;;;27.00;39.40;;;;;;8363985;28;19917;-45
2022/07/30 02:05:26;;;;;;;;;;;27.00;39.40;;;;;;8363414;28;19982;-44
2022/07/30 02:09:40;;;;;;;;;;;27.00;39.40;;;;;;8364513;28;19920;-43
2022/07/30 02:13:49;;;;;;;;;;;27.00;39.40;;;;;;8363743;28;20277;-44
2022/07/30 02:17:57;;;;;;;;;;;27.00;39.40;;;;;;8363097;28;19917;-45
2022/07/30 02:22:04;;;;;;;;;;;26.90;39.30;;;;;;8363447;28;20024;-44
2022/07/30 02:26:07;;;;;;;;;;;27.00;39.40;;;;;;8362830;28;20032;-44
2022/07/30 02:30:08;;;;;;;;;;;26.90;39.40;;;;;;8363519;28;19912;-44
2022/07/30 02:34:09;;;;;;;;;;;26.90;39.30;;;;;;8363458;28;19995;-44
2022/07/30 02:38:11;;;;;;;;;;;26.90;39.30;;;;;;8364748;28;19917;-45
2022/07/30 02:42:11;;;;;;;;;;;26.90;39.40;;;;;;8370069;28;19943;-45
2022/07/30 02:46:13;;;;;;;;;;;26.90;39.40;;;;;;8369878;28;19921;-45
2022/07/30 02:50:14;;;;;;;;;;;26.80;39.30;;;;;;8369599;28;20426;-45
2022/07/30 02:54:16;;;;;;;;;;;26.90;39.40;;;;;;8369667;28;19924;-44
2022/07/30 02:58:22;;;;;;;;;;;26.80;39.30;;;;;;8369474;28;20382;-44
2022/07/30 03:02:22;;;;;;;;;;;26.80;39.30;;;;;;8368850;28;19916;-45
2022/07/30 03:06:24;;;;;;;;;;;26.80;39.30;;;;;;8369182;28;19920;-45
2022/07/30 03:10:25;;;;;;;;;;;26.80;39.30;;;;;;8369396;28;20345;-44
2022/07/30 03:14:26;;;;;;;;;;;26.80;39.30;;;;;;8368686;28;20300;-44
2022/07/30 03:18:31;;;;;;;;;;;26.80;39.30;;;;;;8369003;28;19917;-45
2022/07/30 03:22:33;;;;;;;;;;;26.80;39.30;;;;;;8368636;28;20385;-44
2022/07/30 03:26:35;;;;;;;;;;;26.80;39.30;;;;;;8368011;28;19917;-44
2022/07/30 03:30:36;;;;;;;;;;;26.80;39.30;;;;;;8368966;28;20373;-44
2022/07/30 03:34:36;;;;;;;;;;;26.80;39.30;;;;;;8368498;28;19931;-44
2022/07/30 03:38:38;;;;;;;;;;;26.80;39.30;;;;;;8367741;28;19917;-45
2022/07/30 03:42:38;;;;;;;;;;;26.70;39.30;;;;;;8368241;28;20007;-44
2022/07/30 03:46:39;;;;;;;;;;;26.70;39.30;;;;;;8368060;28;19924;-44
2022/07/30 03:50:41;;;;;;;;;;;26.80;39.40;;;;;;8366774;28;20012;-44
2022/07/30 03:54:41;;;;;;;;;;;26.70;39.30;;;;;;8367788;28;19928;-44
2022/07/30 03:58:42;;;;;;;;;;;26.70;39.30;;;;;;8367183;28;19917;-42
2022/07/30 04:02:43;;;;;;;;;;;26.70;39.30;;;;;;8367435;28;20417;-44
2022/07/30 04:06:43;;;;;;;;;;;26.70;39.30;;;;;;8367528;28;20281;-44
2022/07/30 04:10:44;;;;;;;;;;;26.70;39.30;;;;;;8366039;28;19917;-45
2022/07/30 04:14:44;;;;;;;;;;;26.70;39.30;;;;;;8367417;28;19921;-44
2022/07/30 04:18:47;;;;;;;;;;;26.60;39.30;;;;;;8366937;28;19917;-44
2022/07/30 04:22:48;;;;;;;;;;;26.60;39.30;;;;;;8366335;28;20027;-45
2022/07/30 04:26:48;;;;;;;;;;;26.60;39.30;;;;;;8366691;28;19920;-44
2022/07/30 04:30:49;;;;;;;;;;;26.60;39.30;;;;;;8366978;28;20266;-43
2022/07/30 04:34:52;;;;;;;;;;;26.60;39.20;;;;;;8366210;28;20011;-44
2022/07/30 04:38:52;;;;;;;;;;;26.60;39.20;;;;;;8366863;28;19924;-44
2022/07/30 04:42:53;;;;;;;;;;;26.60;39.30;;;;;;8366087;28;19952;-44
2022/07/30 04:46:53;;;;;;;;;;;26.60;39.20;;;;;;8365842;28;19916;-44
2022/07/30 04:50:56;;;;;;;;;;;26.60;39.20;;;;;;8366348;28;19952;-45
2022/07/30 04:54:58;;;;;;;;;;;26.60;39.30;;;;;;8365958;28;20377;-44
2022/07/30 04:58:59;;;;;;;;;;;26.60;39.20;;;;;;8365257;28;19916;-44
2022/07/30 05:03:01;;;;;;;;;;;26.60;39.30;;;;;;8365589;28;19948;-44
2022/07/30 05:07:02;;;;;;;;;;;26.50;39.20;;;;;;8365830;28;19921;-44
2022/07/30 05:11:02;;;;;;;;;;;26.50;39.20;;;;;;8365190;28;20380;-45
2022/07/30 05:15:07;;;;;;;;;;;26.50;39.20;;;;;;8365610;28;19956;-44
2022/07/30 05:19:08;;;;;;;;;;;26.60;39.20;;;;;;8365235;28;20259;-44
2022/07/30 05:23:08;;;;;;;;;;;26.50;39.50;;;;;;8364445;28;19925;-43
2022/07/30 05:27:09;;;;;;;;;;;26.50;39.20;;;;;;8365166;28;19913;-44
2022/07/30 05:31:09;;;;;;;;;;;26.50;39.30;;;;;;8364957;28;19917;-44
2022/07/30 05:35:10;;;;;;;;;;;26.50;39.20;;;;;;8364254;28;19921;-46
2022/07/30 05:39:10;;;;;;;;;;;26.50;39.30;;;;;;8364606;28;19924;-44
2022/07/30 05:43:11;;;;;;;;;;;26.50;39.30;;;;;;8364295;28;19928;-45
2022/07/30 05:47:11;;;;;;;;;;;26.50;39.30;;;;;;8363576;28;19917;-44
2022/07/30 05:51:12;;;;;;;;;;;26.50;39.30;;;;;;8364190;28;19917;-44
2022/07/30 05:55:12;;;;;;;;;;;26.50;39.30;;;;;;8363783;28;20011;-44
2022/07/30 05:59:13;;;;;;;;;;;26.50;39.30;;;;;;8363569;28;19939;-45
2022/07/30 06:03:13;;;;;;;;;;;26.50;39.30;;;;;;8363790;28;19928;-45
2022/07/30 06:07:14;;;;;;;;;;;26.50;39.30;;;;;;8363747;28;19917;-45
2022/07/30 06:11:14;;;;;;;;;;;26.50;39.30;;;;;;8363516;28;19917;-45
2022/07/30 06:15:15;;;;;;;;;;;26.50;39.30;;;;;;8363584;28;19927;-45
2022/07/30 06:19:15;;;;;;;;;;;26.50;39.30;;;;;;8363722;28;19928;-44
2022/07/30 06:23:16;;;;;;;;;;;26.50;39.30;;;;;;8362878;28;19971;-46
2022/07/30 06:27:16;;;;;;;;;;;26.50;39.30;;;;;;8363603;28;19919;-45
2022/07/30 06:31:17;;;;;;;;;;;26.40;39.20;;;;;;8363535;28;19917;-48
2022/07/30 06:35:17;;;;;;;;;;;26.50;39.30;;;;;;8362788;28;19921;-44
2022/07/30 06:39:18;;;;;;;;;;;26.40;39.20;;;;;;8363120;28;19921;-45
2022/07/30 06:43:19;;;;;;;;;;;26.50;39.30;;;;;;8362951;28;20374;-48
2022/07/30 06:47:25;;;;;;;;;;;26.50;39.30;;;;;;8362568;28;19950;-44
2022/07/30 06:51:25;;;;;;;;;;;26.50;39.30;;;;;;8363405;28;19916;-45
2022/07/30 06:55:25;;;;;;;;;;;26.50;39.30;;;;;;8363037;28;19956;-45
2022/07/30 06:59:26;;;;;;;;;;;26.50;39.30;;;;;;8362414;28;19924;-44
2022/07/30 07:03:27;;;;;;;;;;;26.50;39.30;;;;;;8362749;28;19982;-45
2022/07/30 07:07:27;;;;;;;;;;;26.50;39.30;;;;;;8362621;28;19916;-45
2022/07/30 07:11:28;;;;;;;;;;;26.50;39.30;;;;;;8334258;28;20013;-47
2022/07/30 07:15:28;;;;;;;;;;;26.50;39.30;;;;;;8354323;28;20275;-44
2022/07/30 07:19:29;;;;;;;;;;;26.50;39.30;;;;;;8362164;28;20008;-44
2022/07/30 07:23:29;;;;;;;;;;;26.50;39.20;;;;;;8361438;28;19924;-45
2022/07/30 07:27:30;;;;;;;;;;;26.50;39.20;;;;;;8368312;28;19941;-44
2022/07/30 07:31:30;;;;;;;;;;;26.50;39.30;;;;;;8368361;28;20298;-44
2022/07/30 07:35:32;;;;;;;;;;;26.50;39.30;;;;;;8367919;28;19925;-44
2022/07/30 07:39:32;;;;;;;;;;;26.50;39.30;;;;;;8368191;28;19924;-45
2022/07/30 07:43:32;;;;;;;;;;;26.50;39.30;;;;;;8368212;28;19976;-44
2022/07/30 07:47:43;;;;;;;;;;;26.50;39.30;;;;;;8367848;28;19940;-45
2022/07/30 07:51:43;;;;;;;;;;;26.50;39.30;;;;;;8368051;28;19994;-44
2022/07/30 07:55:44;;;;;;;;;;;26.50;39.30;;;;;;8367394;28;19916;-44
2022/07/30 07:59:44;;;;;;;;;;;26.50;39.30;;;;;;8367730;28;19956;-44
2022/07/30 08:03:45;;;;;;;;;;;26.50;39.30;;;;;;8367413;28;20332;-44
2022/07/30 08:07:45;;;;;;;;;;;26.50;39.30;;;;;;8367048;28;19923;-44
2022/07/30 08:11:46;;;;;;;;;;;26.60;39.80;;;;;;8367361;28;19917;-43
2022/07/30 08:15:47;;;;;;;;;;;26.60;39.30;;;;;;8367272;28;19928;-44
2022/07/30 08:19:47;;;;;;;;;;;26.60;39.30;;;;;;8366570;28;19944;-44
2022/07/30 08:23:48;;;;;;;;;;;26.60;39.20;;;;;;8366566;28;19924;-44
2022/07/30 08:27:48;;;;;;;;;;;26.60;39.30;;;;;;8366727;28;19917;-45
2022/07/30 08:31:48;;;;;;;;;;;26.60;39.30;;;;;;8366093;28;19923;-44
2022/07/30 08:35:49;;;;;;;;;;;26.60;39.30;;;;;;8366251;28;19931;-45
2022/07/30 08:39:50;;;;;;;;;;;26.60;39.30;;;;;;8366484;28;19919;-44
2022/07/30 08:43:51;;;;;;;;;;;26.70;39.30;;;;;;8365817;28;19924;-44
2022/07/30 08:47:51;;;;;;;;;;;26.70;39.30;;;;;;8366504;28;20315;-45
2022/07/30 08:51:52;;;;;;;;;;;26.70;39.20;;;;;;8366101;28;19924;-45
2022/07/30 08:55:53;;;;;;;;;;;26.70;39.20;;;;;;8365446;28;20377;-45
2022/07/30 08:59:53;;;;;;;;;;;26.70;39.20;;;;;;8365763;28;19974;-44
2022/07/30 09:03:53;;;;;;;;;;;26.80;39.20;;;;;;8365503;28;20325;-44
2022/07/30 09:07:54;;;;;;;;;;;26.80;39.20;;;;;;8365334;28;19917;-44
2022/07/30 09:11:54;;;;;;;;;;;26.80;39.20;;;;;;8365429;28;19924;-45
2022/07/30 09:15:55;;;;;;;;;;;26.80;39.10;;;;;;8365465;28;19921;-45
2022/07/30 09:20:03;;;;;;;;;;;26.80;39.10;;;;;;8364963;28;19959;-44
2022/07/30 09:24:04;;;;;;;;;;;26.80;39.10;;;;;;8365133;28;20309;-46
2022/07/30 09:28:05;;;;;;;;;;;26.80;39.00;;;;;;8365342;28;20273;-46
2022/07/30 09:32:08;;;;;;;;;;;26.80;39.00;;;;;;8364318;28;19917;-46
2022/07/30 09:36:09;;;;;;;;;;;26.80;39.00;;;;;;8364808;28;19917;-46
2022/07/30 09:40:11;;;;;;;;;;;26.80;38.90;;;;;;8364699;28;19967;-45
2022/07/30 09:44:21;;;;;;;;;;;26.80;38.90;;;;;;8363930;28;19924;-45
2022/07/30 09:48:22;;;;;;;;;;;26.90;39.00;;;;;;8363908;28;19917;-45
2022/07/30 09:52:27;;;;;;;;;;;26.80;38.90;;;;;;8364395;28;19948;-43
2022/07/30 09:56:29;;;;;;;;;;;26.90;39.00;;;;;;8363888;28;19916;-43
2022/07/30 10:00:31;;;;;;;;;;;26.90;38.90;;;;;;8363904;28;19916;-44
2022/07/30 10:04:31;;;;;;;;;;;26.90;39.00;;;;;;8363931;28;19929;-44
2022/07/30 10:08:38;;;;;;;;;;;26.90;38.90;;;;;;8363530;28;19996;-45
2022/07/30 10:12:38;;;;;;;;;;;26.90;38.80;;;;;;8362790;28;19916;-45
2022/07/30 10:16:39;;;;;;;;;;;27.00;38.80;;;;;;8364005;28;19955;-45
2022/07/30 10:20:41;;;;;;;;;;;27.00;38.80;;;;;;8363100;28;19917;-45
2022/07/30 10:24:43;;;;;;;;;;;27.00;38.70;;;;;;8363434;28;19971;-45
2022/07/30 10:28:44;;;;;;;;;;;27.00;38.70;;;;;;8363143;28;20266;-44
2022/07/30 10:32:45;;;;;;;;;;;27.00;38.70;;;;;;8363144;28;19917;-44
2022/07/30 10:36:48;;;;;;;;;;;27.00;38.70;;;;;;8363213;28;19923;-45
2022/07/30 10:40:51;;;;;;;;;;;27.00;38.60;;;;;;8362781;28;19913;-44
2022/07/30 10:45:00;;;;;;;;;;;27.00;38.70;;;;;;8362892;28;19940;-43
2022/07/30 10:49:08;;;;;;;;;;;27.00;38.60;;;;;;8363055;28;19917;-45
2022/07/30 10:53:08;;;;;;;;;;;27.00;38.60;;;;;;8362760;28;19917;-43
2022/07/30 10:57:11;;;;;;;;;;;27.00;38.60;;;;;;8362810;28;19999;-45
2022/07/30 11:01:12;;;;;;;;;;;27.00;38.60;;;;;;8368347;28;20362;-44
2022/07/30 11:05:18;;;;;;;;;;;27.10;38.60;;;;;;8368933;28;19925;-45
2022/07/30 11:09:34;;;;;;;;;;;27.10;38.60;;;;;;8369324;28;19917;-44
2022/07/30 11:13:51;;;;;;;;;;;27.10;38.60;;;;;;8369475;28;20007;-44
2022/07/30 11:18:06;;;;;;;;;;;27.10;38.60;;;;;;8368017;28;20008;-44
2022/07/30 11:22:21;;;;;;;;;;;27.10;38.60;;;;;;8368972;28;19946;-44
2022/07/30 11:26:37;;;;;;;;;;;27.20;38.50;;;;;;8368221;28;20298;-44
2022/07/30 11:30:37;;;;;;;;;;;27.10;38.40;;;;;;8368640;28;20027;-44
2022/07/30 11:34:38;;;;;;;;;;;27.10;38.40;;;;;;8368525;28;19921;-44
2022/07/30 11:38:51;;;;;;;;;;;27.10;38.60;;;;;;8368120;28;19916;-44
2022/07/30 11:43:12;;;;;;;;;;;27.10;38.40;;;;;;8368258;28;19925;-44
2022/07/30 11:47:12;;;;;;;;;;;27.10;38.50;;;;;;8367263;28;19960;-44
2022/07/30 11:51:13;;;;;;;;;;;27.20;38.60;;;;;;8367905;28;19917;-44
2022/07/30 11:55:20;;;;;;;;;;;27.10;38.40;;;;;;8368110;28;19923;-44
2022/07/30 11:59:21;;;;;;;;;;;27.10;38.30;;;;;;8367528;28;19919;-44
2022/07/30 12:03:22;;;;;;;;;;;27.20;38.50;;;;;;8367629;28;19929;-44
2022/07/30 12:07:23;;;;;;;;;;;27.20;38.50;;;;;;8367415;28;19917;-44
2022/07/30 12:11:24;;;;;;;;;;;27.20;38.40;;;;;;8365792;28;19923;-44
2022/07/30 12:15:28;;;;;;;;;;;27.20;38.50;;;;;;8367360;28;19921;-44
2022/07/30 12:19:29;;;;;;;;;;;27.20;38.40;;;;;;8367477;28;19920;-44
2022/07/30 12:23:30;;;;;;;;;;;27.30;38.50;;;;;;8366239;28;19924;-45
2022/07/30 12:27:31;;;;;;;;;;;27.30;38.30;;;;;;8366803;28;20009;-44
2022/07/30 12:31:34;;;;;;;;;;;27.20;38.20;;;;;;8366676;28;19966;-44
2022/07/30 12:35:45;;;;;;;;;;;27.20;38.20;;;;;;8366122;28;19921;-44
2022/07/30 12:39:45;;;;;;;;;;;27.20;38.30;;;;;;8366714;28;19936;-45
2022/07/30 12:43:50;;;;;;;;;;;27.20;38.20;;;;;;8365969;28;19921;-43
2022/07/30 12:47:50;;;;;;;;;;;27.30;38.20;;;;;;8366235;28;19917;-45
2022/07/30 12:51:52;;;;;;;;;;;27.30;38.30;;;;;;8366013;28;20007;-45
2022/07/30 12:55:52;;;;;;;;;;;27.30;38.30;;;;;;8365416;28;19924;-44
2022/07/30 13:00:07;;;;;;;;;;;27.30;38.20;;;;;;8365909;28;19917;-44
2022/07/30 13:04:08;;;;;;;;;;;27.30;38.30;;;;;;8365867;28;20275;-43
2022/07/30 13:08:08;;;;;;;;;;;27.30;38.20;;;;;;8364448;28;19917;-45
2022/07/30 13:12:12;;;;;;;;;;;27.40;38.20;;;;;;8365667;28;20003;-45
2022/07/30 13:16:13;;;;;;;;;;;27.30;38.10;;;;;;8365129;28;19927;-44
2022/07/30 13:20:14;;;;;;;;;;;27.30;38.00;;;;;;8365119;28;19913;-47
2022/07/30 13:24:14;;;;;;;;;;;27.40;38.20;;;;;;8364116;28;19920;-44
2022/07/30 13:28:14;;;;;;;;;;;27.30;38.20;;;;;;8364926;28;20305;-44
2022/07/30 13:32:15;;;;;;;;;;;27.40;38.10;;;;;;8364322;28;20345;-44
2022/07/30 13:36:16;;;;;;;;;;;27.40;38.10;;;;;;8364612;28;20007;-46
2022/07/30 13:40:16;;;;;;;;;;;27.30;38.00;;;;;;8364726;28;19919;-44
2022/07/30 13:44:17;;;;;;;;;;;27.30;38.00;;;;;;8364137;28;19921;-44
2022/07/30 13:48:18;;;;;;;;;;;27.30;37.90;;;;;;8364305;28;19963;-44
2022/07/30 13:52:18;;;;;;;;;;;27.30;38.00;;;;;;8364226;28;20374;-44
2022/07/30 13:56:19;;;;;;;;;;;27.30;38.50;;;;;;8363572;28;20429;-44
2022/07/30 14:00:19;;;;;;;;;;;27.40;38.00;;;;;;8364120;28;19913;-44
2022/07/30 14:04:19;;;;;;;;;;;27.40;38.00;;;;;;8364140;28;19952;-44
2022/07/30 14:08:20;;;;;;;;;;;27.40;38.00;;;;;;8363310;28;19924;-45
2022/07/30 14:12:21;;;;;;;;;;;27.40;37.90;;;;;;8363849;28;19917;-45
2022/07/30 14:16:21;;;;;;;;;;;27.40;37.80;;;;;;8363735;28;20015;-44
2022/07/30 14:20:22;;;;;;;;;;;27.40;37.80;;;;;;8363118;28;19917;-45
2022/07/30 14:24:22;;;;;;;;;;;27.40;37.80;;;;;;8363708;28;19932;-45
2022/07/30 14:28:23;;;;;;;;;;;27.40;37.80;;;;;;8363357;28;20011;-44
2022/07/30 14:32:23;;;;;;;;;;;27.40;37.70;;;;;;8362631;28;19971;-44
2022/07/30 14:36:29;;;;;;;;;;;27.40;37.70;;;;;;8362093;28;22442;-44
2022/07/30 14:40:29;;;;;;;;;;;27.40;37.80;;;;;;8363166;28;20000;-45
2022/07/30 14:44:29;;;;;;;;;;;27.40;37.70;;;;;;8362754;28;19924;-44
2022/07/30 14:48:30;;;;;;;;;;;27.40;37.70;;;;;;8345142;28;19917;-44
2022/07/30 14:52:33;;;;;;;;;;;27.50;37.70;;;;;;8362930;28;20374;-44
2022/07/30 14:56:34;;;;;;;;;;;27.50;37.70;;;;;;8362519;28;19917;-45
2022/07/30 15:00:35;;;;;;;;;;;27.50;37.70;;;;;;8363175;28;19939;-44
2022/07/30 15:04:36;;;;;;;;;;;27.50;37.70;;;;;;8362932;28;19927;-45
2022/07/30 15:08:36;;;;;;;;;;;27.50;37.70;;;;;;8362467;28;19963;-45
2022/07/30 15:12:36;;;;;;;;;;;27.50;37.60;;;;;;8362781;28;20007;-45
2022/07/30 15:16:37;;;;;;;;;;;27.60;37.70;;;;;;8362711;28;19927;-46
2022/07/30 15:20:38;;;;;;;;;;;27.60;37.60;;;;;;8344653;28;19912;-44
2022/07/30 15:24:38;;;;;;;;;;;27.60;37.60;;;;;;8362589;28;19925;-43
2022/07/30 15:28:39;;;;;;;;;;;27.60;37.50;;;;;;8362448;28;19924;-44
2022/07/30 15:32:39;;;;;;;;;;;27.60;37.50;;;;;;8361976;28;19917;-44
2022/07/30 15:36:40;;;;;;;;;;;27.60;37.40;;;;;;8362315;28;20289;-45
2022/07/30 15:40:41;;;;;;;;;;;27.60;37.40;;;;;;8362501;28;20453;-45
2022/07/30 15:44:41;;;;;;;;;;;27.60;37.50;;;;;;8361948;28;20259;-45
2022/07/30 15:48:41;;;;;;;;;;;27.60;37.40;;;;;;8368148;28;19920;-45
2022/07/30 15:52:42;;;;;;;;;;;27.60;37.30;;;;;;8367583;28;19917;-44
2022/07/30 15:56:44;;;;;;;;;;;27.60;37.40;;;;;;8367817;28;19920;-45
2022/07/30 16:00:45;;;;;;;;;;;27.60;37.30;;;;;;8368193;28;19964;-45
2022/07/30 16:04:45;;;;;;;;;;;27.60;37.30;;;;;;8367226;28;19975;-45
2022/07/30 16:08:46;;;;;;;;;;;27.60;37.30;;;;;;8358905;28;19940;-45
2022/07/30 16:12:46;;;;;;;;;;;27.60;37.40;;;;;;8348831;28;20277;-44
2022/07/30 16:16:47;;;;;;;;;;;27.60;37.30;;;;;;8366829;28;19927;-44
2022/07/30 16:20:47;;;;;;;;;;;27.60;37.20;;;;;;8367443;28;19913;-44
2022/07/30 16:24:48;;;;;;;;;;;27.60;37.20;;;;;;8366981;28;19932;-44
2022/07/30 16:28:49;;;;;;;;;;;27.60;37.30;;;;;;8366515;28;19916;-46
2022/07/30 16:32:50;;;;;;;;;;;27.60;37.30;;;;;;8366969;28;19999;-45
2022/07/30 16:36:50;;;;;;;;;;;27.60;37.30;;;;;;8366864;28;19924;-45
2022/07/30 16:40:51;;;;;;;;;;;27.60;37.30;;;;;;8366350;28;20377;-46
2022/07/30 16:44:51;;;;;;;;;;;27.60;37.40;;;;;;8366558;28;20011;-45
2022/07/30 16:48:52;;;;;;;;;;;27.60;37.40;;;;;;8366201;28;20278;-45
2022/07/30 16:52:52;;;;;;;;;;;27.60;37.40;;;;;;8365736;28;20365;-46
2022/07/30 16:56:52;;;;;;;;;;;27.60;37.40;;;;;;8365846;28;20353;-45
2022/07/30 17:00:53;;;;;;;;;;;27.60;37.50;;;;;;8366155;28;20008;-45
2022/07/30 17:04:53;;;;;;;;;;;27.60;37.40;;;;;;8365316;28;19925;-45
2022/07/30 17:08:54;;;;;;;;;;;27.60;37.50;;;;;;8365672;28;20262;-45
2022/07/30 17:12:54;;;;;;;;;;;27.50;37.40;;;;;;8365616;28;20428;-45
2022/07/30 17:16:55;;;;;;;;;;;27.60;37.60;;;;;;8364884;28;19921;-46
2022/07/30 17:20:56;;;;;;;;;;;27.50;37.50;;;;;;8365816;28;20369;-45
2022/07/30 17:24:57;;;;;;;;;;;27.60;37.60;;;;;;8365356;28;19935;-45
2022/07/30 17:28:57;;;;;;;;;;;27.50;37.50;;;;;;8364603;28;19921;-45
2022/07/30 17:32:58;;;;;;;;;;;27.50;37.50;;;;;;8364853;28;19928;-45
2022/07/30 17:36:58;;;;;;;;;;;27.50;37.50;;;;;;8365441;28;19967;-46
2022/07/30 17:40:59;;;;;;;;;;;27.60;37.60;;;;;;8356276;28;19920;-45
2022/07/30 17:45:00;;;;;;;;;;;27.50;37.60;;;;;;8364787;28;19924;-45
2022/07/30 17:49:00;;;;;;;;;;;27.60;37.60;;;;;;8364169;28;19917;-46
2022/07/30 17:53:01;;;;;;;;;;;27.50;37.60;;;;;;8363729;28;19956;-45
2022/07/30 17:57:02;;;;;;;;;;;27.60;37.60;;;;;;8364218;28;19916;-45
2022/07/30 18:01:03;;;;;;;;;;;27.50;37.60;;;;;;8364240;28;19912;-45
2022/07/30 18:05:03;;;;;;;;;;;27.50;37.50;;;;;;8363749;28;20027;-43
2022/07/30 18:09:04;;;;;;;;;;;27.50;37.50;;;;;;8381989;28;19996;-44
2022/07/30 18:13:10;;;;;;;;;;;27.50;37.60;;;;;;8396877;28;20011;-45
2022/07/30 18:17:10;;;;;;;;;;;27.50;38.10;;;;;;8396341;28;19942;-45
2022/07/30 18:21:12;;;;;;;;;;;27.50;37.50;;;;;;8396872;28;19912;-44
2022/07/30 18:25:12;;;;;;;;;;;27.50;37.50;;;;;;8396743;28;19978;-45
2022/07/30 18:29:13;;;;;;;;;;;27.50;37.50;;;;;;8396351;28;19924;-45
2022/07/30 18:33:14;;;;;;;;;;;27.50;37.50;;;;;;8396140;28;19924;-46
2022/07/30 18:37:15;;;;;;;;;;;27.50;37.50;;;;;;8378604;28;20047;-46
2022/07/30 18:41:16;;;;;;;;;;;27.50;37.50;;;;;;8396086;28;19935;-44
2022/07/30 18:45:16;;;;;;;;;;;27.50;37.50;;;;;;8385845;28;21383;-45
2022/07/30 18:49:17;;;;;;;;;;;27.50;37.50;;;;;;8328490;28;19921;-45
2022/07/30 18:53:17;;;;;;;;;;;27.40;37.60;;;;;;8361936;28;19932;-43
2022/07/30 18:57:18;;;;;;;;;;;27.40;38.00;;;;;;8355733;28;19929;-44
2022/07/30 19:01:19;;;;;;;;;;;27.40;36.80;;;;;;8362935;28;20353;-46
2022/07/30 19:05:19;;;;;;;;;;;27.30;36.70;;;;;;8362120;28;20020;-45
2022/07/30 19:09:20;;;;;;;;;;;27.30;36.30;;;;;;8362579;28;19917;-45
2022/07/30 19:13:22;;;;;;;;;;;27.30;35.90;;;;;;8362586;28;19921;-44
2022/07/30 19:17:23;;;;;;;;;;;27.30;35.80;;;;;;8360973;28;19921;-44
2022/07/30 19:21:24;;;;;;;;;;;27.30;35.30;;;;;;8342394;28;20000;-44
2022/07/30 19:25:24;;;;;;;;;;;27.20;35.40;;;;;;8363614;28;19928;-42
2022/07/30 19:29:25;;;;;;;;;;;27.10;35.20;;;;;;8351808;28;19917;-45
2022/07/30 19:33:25;;;;;;;;;;;27.10;35.50;;;;;;8383370;28;19944;-44
2022/07/30 19:37:25;;;;;;;;;;;27.00;35.50;;;;;;8345313;28;19917;-43
2022/07/30 19:41:26;;;;;;;;;;;27.00;35.30;;;;;;8365615;28;20401;-43
2022/07/30 19:45:27;;;;;;;;;;;27.00;34.90;;;;;;8354433;28;19971;-43
2022/07/30 19:49:27;;;;;;;;;;;27.00;35.00;;;;;;8345142;28;20010;-43
2022/07/30 19:53:28;;;;;;;;;;;26.90;35.00;;;;;;8345654;28;19925;-43
2022/07/30 19:57:29;;;;;;;;;;;26.80;34.80;;;;;;8361956;28;19967;-43
2022/07/30 20:01:29;;;;;;;;;;;26.80;34.90;;;;;;8351017;28;19918;-44
2022/07/30 20:05:30;;;;;;;;;;;26.80;35.70;;;;;;8350142;28;19956;-43
2022/07/30 20:09:30;;;;;;;;;;;26.70;36.10;;;;;;8350015;28;19928;-43
2022/07/30 20:13:31;;;;;;;;;;;26.70;35.80;;;;;;8367353;28;20321;-44
2022/07/30 20:17:32;;;;;;;;;;;26.80;35.70;;;;;;8366605;28;19919;-43
2022/07/30 20:21:32;;;;;;;;;;;26.80;35.60;;;;;;8367345;28;20011;-43
2022/07/30 20:25:33;;;;;;;;;;;26.90;35.70;;;;;;8366597;28;19925;-43
2022/07/30 20:29:33;;;;;;;;;;;27.00;35.90;;;;;;8366374;28;19924;-43
2022/07/30 20:33:34;;;;;;;;;;;27.00;35.90;;;;;;8366010;28;19916;-43
2022/07/30 20:37:37;;;;;;;;;;;27.00;35.90;;;;;;8366816;28;19959;-43
2022/07/30 20:41:38;;;;;;;;;;;27.10;36.00;;;;;;8365871;28;20350;-42
2022/07/30 20:45:40;;;;;;;;;;;27.10;36.10;;;;;;8366238;28;19925;-43
2022/07/30 20:49:40;;;;;;;;;;;27.10;36.10;;;;;;8366420;28;20323;-43
2022/07/30 20:53:41;;;;;;;;;;;27.10;36.10;;;;;;8365640;28;19917;-45
2022/07/30 20:57:41;;;;;;;;;;;27.10;36.10;;;;;;8348307;28;20051;-44
2022/07/30 21:01:42;;;;;;;;;;;27.10;36.10;;;;;;8365289;28;20420;-42
2022/07/30 21:05:42;;;;;;;;;;;27.10;36.20;;;;;;8365535;28;20335;-44
2022/07/30 21:09:43;;;;;;;;;;;27.10;36.20;;;;;;8365750;28;19916;-44
2022/07/30 21:13:43;;;;;;;;;;;27.10;36.20;;;;;;8365110;28;20262;-43
2022/07/30 21:17:44;;;;;;;;;;;27.20;36.30;;;;;;8365571;28;19913;-44
2022/07/30 21:21:45;;;;;;;;;;;27.10;36.20;;;;;;8365161;28;19996;-44
2022/07/30 21:25:46;;;;;;;;;;;27.10;36.30;;;;;;8364543;28;19968;-44
2022/07/30 21:29:46;;;;;;;;;;;27.10;36.30;;;;;;8365008;28;19917;-44
2022/07/30 21:33:47;;;;;;;;;;;27.10;36.30;;;;;;8364880;28;19923;-44
2022/07/30 21:37:47;;;;;;;;;;;27.10;36.30;;;;;;8364480;28;19913;-42
2022/07/30 21:41:48;;;;;;;;;;;27.10;36.30;;;;;;8364551;28;19944;-44
2022/07/30 21:45:48;;;;;;;;;;;27.10;36.30;;;;;;8363633;28;19964;-43
2022/07/30 21:49:49;;;;;;;;;;;27.10;36.40;;;;;;8363901;28;19917;-44
2022/07/30 21:53:49;;;;;;;;;;;27.10;36.40;;;;;;8364182;28;19917;-44
2022/07/30 21:57:50;;;;;;;;;;;27.10;36.40;;;;;;8364268;28;19921;-43
2022/07/30 22:01:50;;;;;;;;;;;27.10;36.40;;;;;;8375182;28;19966;-44
2022/07/30 22:05:51;;;;;;;;;;;27.00;36.40;;;;;;8361991;28;20302;-43
2022/07/30 22:09:51;;;;;;;;;;;27.10;36.50;;;;;;8342760;28;19913;-43
2022/07/30 22:13:51;;;;;;;;;;;27.10;36.50;;;;;;8363307;28;19921;-44
2022/07/30 22:17:52;;;;;;;;;;;27.10;36.50;;;;;;8363925;28;19963;-44
2022/07/30 22:21:53;;;;;;;;;;;27.10;36.50;;;;;;8363518;28;19974;-44
2022/07/30 22:25:53;;;;;;;;;;;27.10;36.50;;;;;;8362954;28;19960;-43
2022/07/30 22:29:54;;;;;;;;;;;27.00;36.50;;;;;;8363450;28;19967;-43
2022/07/30 22:33:54;;;;;;;;;;;27.00;36.50;;;;;;8363362;28;20286;-43
2022/07/30 22:37:54;;;;;;;;;;;27.00;36.50;;;;;;8363027;28;20391;-44
2022/07/30 22:41:55;;;;;;;;;;;27.00;36.60;;;;;;8363304;28;19924;-43
2022/07/30 22:45:55;;;;;;;;;;;27.00;36.60;;;;;;8363232;28;19952;-43
2022/07/30 22:49:56;;;;;;;;;;;27.00;36.60;;;;;;8362680;28;19928;-43
2022/07/30 22:53:56;;;;;;;;;;;27.00;36.60;;;;;;8363062;28;19920;-42
2022/07/30 22:57:57;;;;;;;;;;;27.00;37.20;;;;;;8369932;28;19913;-42
2022/07/30 23:01:57;;;;;;;;;;;27.00;36.60;;;;;;8369234;28;20340;-45
2022/07/30 23:05:58;;;;;;;;;;;27.00;36.70;;;;;;8369369;28;19924;-43
2022/07/30 23:09:58;;;;;;;;;;;27.00;36.70;;;;;;8369376;28;19929;-43
2022/07/30 23:13:59;;;;;;;;;;;27.00;36.70;;;;;;8368873;28;20010;-43
2022/07/30 23:17:59;;;;;;;;;;;27.00;36.70;;;;;;8369394;28;19912;-44
2022/07/30 23:21:59;;;;;;;;;;;27.00;36.70;;;;;;8369036;28;20285;-44